Time;durP1;ratioP1;P1;durP2;ratioP2;P2;SDS_P1;SDS_P2;PMS_P1;PMS_P2;Temp;Humidity;BMP_temperature;BMP_pressure;BME280_temperature;BME280_humidity;BME280_pressure;Samples;Min_cycle;Max_cycle;Signal;HPM_P1;HPM_P2
2022/07/14 00:02:18;;;;;;;;;17.50;16.75;;;;;29.83;31.36;101436.81;5116273;27;47734;-68
2022/07/14 00:04:44;;;;;;;;;11.33;11.33;;;;;29.90;31.04;101442.66;5134746;27;45372;-67
2022/07/14 00:07:09;;;;;;;;;18.00;14.33;;;;;29.87;31.41;101443.72;5135279;27;45433;-67
2022/07/14 00:09:36;;;;;;;;;13.75;12.25;;;;;29.93;31.26;101450.56;5138567;27;45480;-67
2022/07/14 00:12:02;;;;;;;;;13.00;11.25;;;;;29.95;31.07;101445.91;5135083;27;45483;-68
2022/07/14 00:14:34;;;;;;;;;13.25;12.00;;;;;29.98;31.24;101451.09;5135243;27;45422;-68
2022/07/14 00:17:00;;;;;;;;;13.00;12.25;;;;;30.00;30.70;101450.03;5116065;27;45681;-67
2022/07/14 00:19:26;;;;;;;;;12.25;10.50;;;;;29.95;31.35;101446.78;5119668;27;45331;-67
2022/07/14 00:21:52;;;;;;;;;14.75;12.75;;;;;29.95;30.96;101438.69;5139180;27;45485;-68
2022/07/14 00:24:18;;;;;;;;;15.00;14.67;;;;;29.85;31.41;101437.59;5138440;27;45520;-69
2022/07/14 00:26:44;;;;;;;;;13.75;13.00;;;;;29.72;31.42;101431.28;5134042;27;46653;-67
2022/07/14 00:29:09;;;;;;;;;14.67;14.33;;;;;29.64;31.31;101420.97;5137190;27;45504;-67
2022/07/14 00:31:36;;;;;;;;;16.67;15.67;;;;;29.50;31.65;101408.41;5123754;27;48024;-68
2022/07/14 00:34:02;;;;;;;;;17.00;15.00;;;;;29.52;31.34;101403.78;5143111;27;45272;-66
2022/07/14 00:36:27;;;;;;;;;15.33;14.33;;;;;29.43;31.42;101384.63;5138194;27;45424;-68
2022/07/14 00:38:54;;;;;;;;;19.00;15.00;;;;;29.39;32.00;101397.47;5120023;27;45514;-67
2022/07/14 00:41:19;;;;;;;;;20.67;19.33;;;;;29.42;31.92;101399.09;5139886;27;45515;-67
2022/07/14 00:43:45;;;;;;;;;19.00;15.67;;;;;29.33;32.03;101384.41;5140363;27;45201;-68
2022/07/14 00:46:11;;;;;;;;;23.00;21.33;;;;;29.42;31.92;101402.63;5138647;27;45757;-68
2022/07/14 00:48:36;;;;;;;;;22.33;19.33;;;;;29.43;32.27;101407.09;5141361;27;45680;-69
2022/07/14 00:51:03;;;;;;;;;22.00;19.33;;;;;29.43;32.04;101390.91;5119758;27;47414;-68
2022/07/14 00:53:29;;;;;;;;;23.00;21.33;;;;;29.44;32.52;101392.59;5138311;27;45702;-70
2022/07/14 00:55:54;;;;;;;;;22.33;19.00;;;;;29.46;32.02;101390.69;5138201;27;45408;-69
2022/07/14 00:58:20;;;;;;;;;24.00;21.33;;;;;29.49;32.22;101395.84;5119805;27;45487;-68
2022/07/14 01:00:46;;;;;;;;;27.33;25.33;;;;;29.48;32.15;101404.94;5137708;27;46004;-69
2022/07/14 01:03:12;;;;;;;;;27.00;24.67;;;;;29.39;32.57;101395.63;5138787;27;45365;-67
2022/07/14 01:05:37;;;;;;;;;27.33;26.33;;;;;29.34;32.74;101402.31;5137912;27;45728;-68
2022/07/14 01:08:03;;;;;;;;;28.67;25.00;;;;;29.42;32.22;101415.28;5138037;27;45739;-67
2022/07/14 01:10:29;;;;;;;;;23.33;21.33;;;;;29.48;31.85;101415.72;5137643;27;46482;-68
2022/07/14 01:13:00;;;;;;;;;24.00;22.67;;;;;29.57;32.41;101415.13;5137552;27;45448;-69
2022/07/14 01:15:26;;;;;;;;;23.00;19.67;;;;;29.47;32.58;101400.53;5137549;27;45523;-69
2022/07/14 01:17:52;;;;;;;;;25.33;22.00;;;;;29.46;32.70;101408.72;5118607;27;45873;-68
2022/07/14 01:20:18;;;;;;;;;26.67;20.00;;;;;29.56;32.62;101423.31;5137441;27;45740;-68
2022/07/14 01:22:46;;;;;;;;;22.67;20.33;;;;;29.59;32.73;101423.97;5137434;27;45557;-67
2022/07/14 01:25:13;;;;;;;;;24.00;21.00;;;;;29.64;32.70;101428.19;5118866;27;45405;-69
2022/07/14 01:27:39;;;;;;;;;19.33;15.67;;;;;29.67;32.57;101433.44;5137922;27;45510;-70
2022/07/14 01:30:06;;;;;;;;;21.33;18.00;;;;;29.68;32.66;101427.91;5137076;27;45731;-70
2022/07/14 01:32:32;;;;;;;;;16.67;16.67;;;;;29.68;32.61;101427.91;5141143;27;45347;-68
2022/07/14 01:34:59;;;;;;;;;23.33;18.33;;;;;29.73;32.97;101441.09;5137597;27;45834;-68
2022/07/14 01:37:25;;;;;;;;;22.67;19.33;;;;;29.64;32.51;101426.38;5137580;27;45434;-67
2022/07/14 01:39:51;;;;;;;;;17.33;17.33;;;;;29.62;32.83;101422.91;5139016;27;45860;-68
2022/07/14 01:42:18;;;;;;;;;16.00;15.33;;;;;29.70;32.79;101436.78;5131813;27;47166;-67
2022/07/14 01:44:43;;;;;;;;;15.67;15.33;;;;;29.68;32.73;101433.31;5129878;27;45402;-68
2022/07/14 01:47:09;;;;;;;;;15.25;13.00;;;;;29.61;32.65;101421.16;5137508;27;45421;-67
2022/07/14 01:49:35;;;;;;;;;14.75;14.75;;;;;29.64;32.88;101431.78;5136952;27;45558;-68
2022/07/14 01:52:01;;;;;;;;;13.25;12.25;;;;;29.62;32.87;101427.44;5137233;27;45477;-68
2022/07/14 01:54:26;;;;;;;;;12.50;10.50;;;;;29.51;33.04;101417.34;5137223;27;45468;-68
2022/07/14 01:56:52;;;;;;;;;11.50;11.25;;;;;29.53;32.66;101420.81;5137353;27;45285;-67
2022/07/14 01:59:18;;;;;;;;;12.00;11.25;;;;;29.58;33.26;101432.16;5137017;27;46023;-67
2022/07/14 02:01:44;;;;;;;;;9.25;9.25;;;;;29.55;33.04;101413.50;5136770;27;45606;-67
2022/07/14 02:04:14;;;;;;;;;12.75;9.75;;;;;29.56;32.86;101426.88;5141427;27;45527;-67
2022/07/14 02:06:57;;;;;;;;;9.50;9.50;;;;;29.36;32.74;101384.19;5140280;27;45499;-68
2022/07/14 02:12:10;;;;;;;;;9.75;8.50;;;;;29.48;32.40;101421.13;5117901;27;46529;-67
2022/07/14 02:12:15;;;;;;;;;9.00;7.50;;;;;29.30;33.04;101388.13;5136752;27;45723;-69
2022/07/14 02:14:41;;;;;;;;;9.00;9.00;;;;;29.23;33.96;101407.53;5119089;27;45513;-67
2022/07/14 02:17:06;;;;;;;;;9.25;8.50;;;;;29.07;34.56;101400.47;5119881;27;45361;-68
2022/07/14 02:19:38;;;;;;;;;8.00;8.00;;;;;28.89;34.71;101386.31;5137492;27;45831;-69
2022/07/14 02:22:04;;;;;;;;;2.75;2.75;;;;;28.88;35.29;101408.84;5139122;27;45341;-68
2022/07/14 02:24:30;;;;;;;;;8.00;8.00;;;;;28.83;34.73;101415.47;5138934;27;45501;-66
2022/07/14 02:26:56;;;;;;;;;9.25;8.50;;;;;28.75;34.61;101402.50;5138755;27;45490;-66
2022/07/14 02:29:21;;;;;;;;;7.00;6.50;;;;;28.67;34.67;101389.53;5138261;27;46286;-68
2022/07/14 02:31:48;;;;;;;;;11.75;6.75;;;;;28.68;34.87;101406.56;5138436;27;45500;-68
2022/07/14 02:34:14;;;;;;;;;7.50;7.25;;;;;28.58;34.74;101403.59;5140036;27;45584;-68
2022/07/14 02:36:40;;;;;;;;;8.50;7.25;;;;;28.65;34.80;101409.44;5138945;27;45408;-68
2022/07/14 02:39:06;;;;;;;;;7.50;7.25;;;;;28.66;34.21;101398.56;5136809;27;45889;-68
2022/07/14 02:41:31;;;;;;;;;6.50;6.50;;;;;28.73;34.27;101397.19;5136645;27;45580;-68
2022/07/14 02:43:57;;;;;;;;;8.50;8.00;;;;;28.62;34.26;101367.41;5137644;27;45365;-67
2022/07/14 02:46:23;;;;;;;;;9.25;9.00;;;;;28.79;34.50;101397.78;5118174;27;45865;-67
2022/07/14 02:48:50;;;;;;;;;9.00;9.00;;;;;28.76;34.66;101388.06;5116396;27;47648;-67
2022/07/14 02:51:15;;;;;;;;;7.75;7.00;;;;;28.80;34.38;101389.59;5113575;27;45506;-67
2022/07/14 02:53:42;;;;;;;;;10.75;8.25;;;;;28.72;34.28;101379.31;5134063;27;45419;-69
2022/07/14 02:56:08;;;;;;;;;7.25;6.00;;;;;28.77;34.61;101388.94;5139995;27;45539;-68
2022/07/14 02:58:34;;;;;;;;;6.75;6.75;;;;;28.80;34.59;101394.13;5135742;27;45731;-67
2022/07/14 03:01:03;;;;;;;;;7.75;7.00;;;;;28.78;34.68;101394.22;5136228;27;45765;-67
2022/07/14 03:03:29;;;;;;;;;6.00;6.00;;;;;28.80;34.64;101389.59;5136191;27;45740;-68
2022/07/14 03:05:55;;;;;;;;;7.75;7.50;;;;;28.68;34.72;101375.06;5136086;27;45721;-68
2022/07/14 03:08:24;;;;;;;;;7.25;7.25;;;;;28.74;34.81;101382.78;5116565;27;47418;-67
2022/07/14 03:10:50;;;;;;;;;5.00;5.00;;;;;28.79;34.75;101390.56;5140116;27;45497;-68
2022/07/14 03:13:16;;;;;;;;;8.00;7.00;;;;;28.77;34.98;101391.63;5140603;27;45305;-68
2022/07/14 03:15:41;;;;;;;;;8.00;6.00;;;;;28.73;34.83;101381.03;5140415;27;45603;-67
2022/07/14 03:18:07;;;;;;;;;5.50;5.50;;;;;28.76;35.37;101385.38;5140008;27;46546;-68
2022/07/14 03:20:32;;;;;;;;;15.25;9.75;;;;;28.65;35.46;101377.13;5139978;27;45944;-69
2022/07/14 03:22:58;;;;;;;;;6.75;6.75;;;;;28.66;35.31;101382.38;5139920;27;45305;-68
2022/07/14 03:25:23;;;;;;;;;9.25;7.25;;;;;28.62;36.38;101378.19;5135622;27;45643;-68
2022/07/14 03:27:59;;;;;;;;;6.25;6.25;;;;;28.45;35.88;101354.97;5121109;27;46018;-67
2022/07/14 03:30:24;;;;;;;;;7.25;7.00;;;;;28.38;36.14;101376.97;5118767;27;45388;-68
2022/07/14 03:32:50;;;;;;;;;8.50;7.00;;;;;28.44;35.87;101388.25;5121054;27;45327;-67
2022/07/14 03:35:16;;;;;;;;;8.00;7.25;;;;;28.49;36.28;101388.84;5140251;27;45321;-68
2022/07/14 03:37:42;;;;;;;;;6.75;6.25;;;;;28.49;35.83;101378.06;5139566;27;45510;-68
2022/07/14 03:40:09;;;;;;;;;7.00;5.75;;;;;28.54;35.95;101388.56;5139984;27;45351;-69
2022/07/14 03:42:34;;;;;;;;;7.25;6.25;;;;;28.55;36.00;101379.53;5139559;27;45349;-67
2022/07/14 03:45:00;;;;;;;;;7.00;7.00;;;;;28.40;36.11;101367.84;5138053;27;45528;-67
2022/07/14 03:47:25;;;;;;;;;8.50;5.25;;;;;28.49;36.04;101379.91;5135598;27;45952;-68
2022/07/14 03:49:51;;;;;;;;;8.50;8.50;;;;;28.49;36.19;101383.47;5138770;27;45410;-70
2022/07/14 03:52:17;;;;;;;;;6.75;6.75;;;;;28.50;36.19;101382.50;5135968;27;46226;-69
2022/07/14 03:54:44;;;;;;;;;8.25;8.00;;;;;28.45;36.68;101379.22;5135830;27;45442;-68
2022/07/14 03:57:11;;;;;;;;;7.00;6.50;;;;;28.42;36.93;101381.22;5136772;27;46365;-68
2022/07/14 03:59:40;;;;;;;;;7.50;5.50;;;;;28.44;36.53;101387.38;5139591;27;45546;-68
2022/07/14 04:02:10;;;;;;;;;6.00;6.00;;;;;28.44;36.67;101384.69;5137085;27;45753;-68
2022/07/14 04:04:35;;;;;;;;;7.50;7.50;;;;;28.37;36.83;101378.81;5136853;27;45512;-67
2022/07/14 04:07:01;;;;;;;;;10.50;9.00;;;;;28.39;36.71;101382.28;5138497;27;45438;-67
2022/07/14 04:09:26;;;;;;;;;9.25;8.50;;;;;28.39;36.87;101382.28;5139256;27;45310;-68
2022/07/14 04:11:52;;;;;;;;;8.00;8.00;;;;;28.38;36.95;101385.06;5138920;27;45369;-68
2022/07/14 04:14:17;;;;;;;;;8.00;7.25;;;;;28.34;36.72;101379.03;5120558;27;45298;-68
2022/07/14 04:16:43;;;;;;;;;7.50;7.00;;;;;28.34;37.00;101385.25;5138777;27;45385;-67
2022/07/14 04:19:09;;;;;;;;;7.00;7.00;;;;;28.30;37.35;101377.47;5138607;27;45508;-69
2022/07/14 04:21:36;;;;;;;;;8.50;7.00;;;;;28.08;38.26;101380.63;5142934;27;45418;-69
2022/07/14 04:24:02;;;;;;;;;7.75;7.75;;;;;28.00;38.40;101383.81;5143612;27;45493;-67
2022/07/14 04:26:28;;;;;;;;;9.25;8.25;;;;;27.99;38.32;101383.88;5143223;27;45508;-66
2022/07/14 04:28:54;;;;;;;;;10.00;8.00;;;;;27.76;38.82;101387.94;5140403;27;45409;-67
2022/07/14 04:31:20;;;;;;;;;6.25;6.00;;;;;27.70;39.10;101389.16;5139106;27;45852;-68
2022/07/14 04:33:46;;;;;;;;;7.00;6.25;;;;;27.49;39.56;101373.34;5139030;27;45273;-70
2022/07/14 04:36:11;;;;;;;;;7.25;6.00;;;;;27.66;39.75;101393.84;5138494;27;46156;-67
2022/07/14 04:38:37;;;;;;;;;6.00;6.00;;;;;27.67;39.13;101398.31;5138538;27;45576;-68
2022/07/14 04:41:03;;;;;;;;;7.50;7.25;;;;;27.59;40.04;101392.47;5138742;27;45405;-68
2022/07/14 04:43:28;;;;;;;;;6.50;6.50;;;;;27.46;39.79;101383.44;5139050;27;45505;-67
2022/07/14 04:45:54;;;;;;;;;7.00;7.00;;;;;27.59;39.83;101397.00;5138538;27;45392;-69
2022/07/14 04:48:20;;;;;;;;;6.50;6.50;;;;;27.69;38.88;101398.19;5138057;27;45704;-68
2022/07/14 04:53:29;;;;;;;;;6.75;6.25;;;;;27.82;38.77;101384.88;5138853;27;45374;-68
2022/07/14 04:55:55;;;;;;;;;6.75;6.00;;;;;27.95;38.52;101398.47;5121936;27;45592;-68
2022/07/14 04:58:24;;;;;;;;;5.25;5.25;;;;;28.04;38.32;101406.00;5142964;27;45319;-68
2022/07/14 05:00:49;;;;;;;;;6.75;6.75;;;;;28.02;38.38;101383.69;5142375;27;45509;-68
2022/07/14 05:03:15;;;;;;;;;8.00;8.00;;;;;28.15;38.27;101398.16;5123230;27;45541;-67
2022/07/14 05:05:41;;;;;;;;;9.50;7.00;;;;;28.10;38.91;101398.44;5119536;27;48248;-69
2022/07/14 05:08:10;;;;;;;;;6.00;5.75;;;;;27.88;39.33;101387.22;5139233;27;45615;-68
2022/07/14 05:10:36;;;;;;;;;7.00;7.00;;;;;27.94;39.45;101397.63;5140879;27;45397;-67
2022/07/14 05:13:01;;;;;;;;;6.25;6.25;;;;;27.84;39.47;101388.38;5139845;27;45637;-67
2022/07/14 05:15:26;;;;;;;;;6.50;6.25;;;;;27.97;39.04;101388.50;5138751;27;46050;-67
2022/07/14 05:17:52;;;;;;;;;7.75;7.75;;;;;27.90;39.77;101391.56;5140378;27;45669;-67
2022/07/14 05:20:18;;;;;;;;;8.00;8.00;;;;;27.82;39.52;101393.81;5144813;27;45221;-68
2022/07/14 05:22:43;;;;;;;;;10.50;8.25;;;;;27.96;39.04;101414.56;5142123;27;45399;-68
2022/07/14 05:25:11;;;;;;;;;9.25;7.25;;;;;27.98;38.93;101404.56;5139432;27;45949;-67
2022/07/14 05:27:39;;;;;;;;;9.00;9.00;;;;;27.85;39.18;101376.66;5141073;27;45448;-68
2022/07/14 05:30:05;;;;;;;;;11.00;8.67;;;;;27.73;40.49;101399.75;5142125;27;45450;-68
2022/07/14 05:32:41;;;;;;;;;12.00;12.00;;;;;27.89;40.19;101408.66;5118967;27;45341;-68
2022/07/14 05:35:07;;;;;;;;;8.75;8.75;;;;;27.74;39.28;101357.53;5138654;27;45536;-67
2022/07/14 05:37:33;;;;;;;;;10.00;10.00;;;;;27.91;39.19;101387.91;5141843;27;45326;-68
2022/07/14 05:39:58;;;;;;;;;8.33;8.33;;;;;28.06;38.75;101401.41;5139318;27;45458;-67
2022/07/14 05:42:24;;;;;;;;;4.00;4.00;;;;;28.07;38.96;101400.44;5137390;27;45867;-68
2022/07/14 05:44:50;;;;;;;;;9.33;9.00;;;;;27.97;39.03;101404.66;5122653;27;47937;-68
2022/07/14 05:47:16;;;;;;;;;14.00;8.50;;;;;27.98;39.93;101404.56;5141593;27;45325;-68
2022/07/14 05:49:43;;;;;;;;;7.67;7.67;;;;;28.07;39.53;101400.44;5140349;27;45461;-68
2022/07/14 05:52:12;;;;;;;;;9.00;9.00;;;;;28.28;38.72;101400.94;5137221;27;45883;-68
2022/07/14 05:54:38;;;;;;;;;8.25;7.00;;;;;28.47;38.43;101415.03;5136510;27;45353;-67
2022/07/14 05:57:04;;;;;;;;;10.00;8.25;;;;;28.57;37.92;101407.25;5140247;27;45250;-68
2022/07/14 05:59:29;;;;;;;;;8.25;7.75;;;;;28.56;38.12;101388.47;5137379;27;45410;-69
2022/07/14 06:01:55;;;;;;;;;11.75;7.25;;;;;28.86;38.02;101408.06;5137781;27;45636;-67
2022/07/14 06:04:21;;;;;;;;;8.25;8.00;;;;;29.01;37.50;101417.00;5139604;27;45424;-68
2022/07/14 06:06:47;;;;;;;;;7.00;7.00;;;;;29.15;37.19;101411.59;5137224;27;45416;-69
2022/07/14 06:09:13;;;;;;;;;8.75;6.75;;;;;29.15;37.27;101402.66;5137310;27;45867;-68
2022/07/14 06:11:43;;;;;;;;;6.50;6.50;;;;;29.11;37.37;101401.97;5136909;27;45468;-70
2022/07/14 06:14:09;;;;;;;;;11.00;7.50;;;;;29.13;37.22;101412.66;5137137;27;45465;-67
2022/07/14 06:16:34;;;;;;;;;6.50;6.50;;;;;29.15;37.74;101419.69;5136815;27;45388;-68
2022/07/14 06:19:00;;;;;;;;;9.25;9.25;;;;;29.21;37.07;101421.13;5120228;27;45430;-69
2022/07/14 06:21:26;;;;;;;;;7.50;7.50;;;;;29.14;37.21;101409.88;5138862;27;45518;-68
2022/07/14 06:23:51;;;;;;;;;8.00;8.00;;;;;29.14;37.21;101392.84;5136489;27;45350;-68
2022/07/14 06:26:24;;;;;;;;;8.25;7.75;;;;;29.22;37.04;101400.41;5136451;27;45526;-67
2022/07/14 06:28:50;;;;;;;;;7.00;7.00;;;;;29.31;37.02;101413.31;5117219;27;46035;-70
2022/07/14 06:31:15;;;;;;;;;7.50;7.50;;;;;29.40;36.79;101415.41;5141239;27;45329;-69
2022/07/14 06:33:41;;;;;;;;;7.25;7.25;;;;;29.40;36.45;101426.19;5138555;27;45909;-69
2022/07/14 06:36:08;;;;;;;;;9.00;7.25;;;;;29.37;37.07;101429.06;5136666;27;45902;-68
2022/07/14 06:38:34;;;;;;;;;7.00;7.00;;;;;29.36;36.75;101432.75;5137173;27;45562;-68
2022/07/14 06:41:00;;;;;;;;;7.00;7.00;;;;;29.32;37.20;101431.22;5136499;27;45450;-69
2022/07/14 06:43:26;;;;;;;;;8.75;8.75;;;;;29.33;37.17;101427.56;5136288;27;45372;-68
2022/07/14 06:45:51;;;;;;;;;10.75;8.50;;;;;29.31;37.12;101414.16;5135918;27;45312;-69
2022/07/14 06:48:17;;;;;;;;;8.00;8.00;;;;;29.32;37.14;101426.66;5136195;27;45545;-68
2022/07/14 06:50:43;;;;;;;;;9.25;7.25;;;;;29.41;36.82;101416.25;5138977;27;46101;-68
2022/07/14 06:53:09;;;;;;;;;9.00;8.00;;;;;29.63;36.70;101426.47;5136961;27;45548;-70
2022/07/14 06:55:35;;;;;;;;;7.50;7.50;;;;;29.69;36.94;101421.56;5117339;27;45518;-71
2022/07/14 06:58:00;;;;;;;;;6.50;6.50;;;;;29.86;36.24;101425.81;5136364;27;45649;-68
2022/07/14 07:00:26;;;;;;;;;6.50;6.50;;;;;29.94;35.94;101420.72;5136507;27;45462;-67
2022/07/14 07:02:52;;;;;;;;;6.50;6.50;;;;;30.08;35.74;101408.97;5135910;27;46363;-68
2022/07/14 07:08:09;;;;;;;;;7.00;7.00;;;;;30.30;35.59;101400.28;5136613;27;45529;-67
2022/07/14 07:10:40;;;;;;;;;6.75;6.75;;;;;30.40;35.12;101400.50;5117560;27;45493;-68
2022/07/14 07:13:07;;;;;;;;;8.25;7.50;;;;;30.63;35.05;101423.16;5136374;27;45853;-71
2022/07/14 07:15:37;;;;;;;;;9.25;7.75;;;;;30.58;35.37;101420.78;5136646;27;45396;-74
2022/07/14 07:18:04;;;;;;;;;8.50;8.00;;;;;30.46;35.17;101418.09;5139166;27;45549;-69
2022/07/14 07:20:29;;;;;;;;;9.25;8.00;;;;;30.52;35.50;101429.34;5140324;27;45462;-75
2022/07/14 07:22:58;;;;;;;;;7.75;7.75;;;;;30.60;35.52;101428.78;5139705;27;45398;-69
2022/07/14 07:25:23;;;;;;;;;6.00;5.25;;;;;30.67;35.15;101415.69;5135967;27;45530;-72
2022/07/14 07:27:49;;;;;;;;;10.50;9.50;;;;;30.81;35.35;101423.66;5135724;27;45479;-70
2022/07/14 07:30:15;;;;;;;;;8.75;8.25;;;;;30.89;34.95;101425.84;5136014;27;45390;-71
2022/07/14 07:32:40;;;;;;;;;8.00;8.00;;;;;30.99;35.02;101426.88;5136071;27;45672;-71
2022/07/14 07:35:06;;;;;;;;;6.50;6.50;;;;;30.98;34.90;101425.16;5117223;27;45507;-67
2022/07/14 07:37:33;;;;;;;;;8.25;8.00;;;;;30.94;34.73;101412.84;5135792;27;45526;-68
2022/07/14 07:40:00;;;;;;;;;7.00;7.00;;;;;31.04;34.88;101424.72;5134929;27;45368;-67
2022/07/14 07:42:33;;;;;;;;;8.50;8.25;;;;;30.90;34.98;101414.06;5116819;27;46317;-67
2022/07/14 07:45:00;;;;;;;;;7.50;7.50;;;;;30.86;34.54;101408.00;5119677;27;45554;-68
2022/07/14 07:47:26;;;;;;;;;7.75;7.75;;;;;30.98;34.24;101414.34;5140241;27;45479;-68
2022/07/14 07:49:58;;;;;;;;;7.75;7.25;;;;;30.99;34.65;101402.53;5136351;27;45462;-74
2022/07/14 07:52:27;;;;;;;;;10.50;8.00;;;;;31.10;34.68;101415.28;5116194;27;47641;-72
2022/07/14 07:54:53;;;;;;;;;9.00;8.75;;;;;30.71;34.57;101350.47;5135486;27;46502;-74
2022/07/14 07:57:19;;;;;;;;;6.00;6.00;;;;;31.18;34.09;101416.47;5135752;27;45561;-72
2022/07/14 07:59:49;;;;;;;;;10.25;9.00;;;;;31.18;33.67;101411.03;5136477;27;45506;-72
2022/07/14 08:02:16;;;;;;;;;11.75;9.00;;;;;31.14;34.26;101406.84;5120752;27;47541;-71
2022/07/14 08:04:41;;;;;;;;;8.00;8.00;;;;;31.23;33.53;101410.72;5136501;27;45630;-71
2022/07/14 08:07:07;;;;;;;;;7.75;6.50;;;;;31.22;33.90;101419.78;5137665;27;45430;-71
2022/07/14 08:09:33;;;;;;;;;8.75;8.00;;;;;31.27;33.77;101418.47;5139650;27;45502;-72
2022/07/14 08:11:59;;;;;;;;;6.50;6.50;;;;;31.28;33.73;101420.19;5138235;27;46013;-70
2022/07/14 08:17:09;;;;;;;;;9.25;8.00;;;;;31.16;33.83;101401.31;5138523;27;45435;-73
2022/07/14 08:19:35;;;;;;;;;8.50;7.00;;;;;31.20;34.00;101414.47;5139809;27;45562;-72
2022/07/14 08:22:01;;;;;;;;;11.50;9.50;;;;;31.09;33.81;101406.31;5117663;27;45891;-72
2022/07/14 08:24:28;;;;;;;;;9.75;9.75;;;;;31.10;34.12;101404.47;5135417;27;45308;-72
2022/07/14 08:26:55;;;;;;;;;9.50;9.50;;;;;31.04;33.44;101386.88;5134990;27;46135;-73
2022/07/14 08:29:20;;;;;;;;;12.75;10.50;;;;;30.90;33.78;101382.47;5139422;27;45421;-70
2022/07/14 08:31:50;;;;;;;;;9.75;8.50;;;;;31.00;33.94;101396.19;5140024;27;46174;-72
2022/07/14 08:34:15;;;;;;;;;9.50;9.25;;;;;31.11;33.90;101393.53;5137732;27;45375;-72
2022/07/14 08:36:41;;;;;;;;;9.00;9.00;;;;;30.94;33.25;101356.03;5135357;27;45324;-73
2022/07/14 08:39:08;;;;;;;;;10.25;8.25;;;;;31.22;33.10;101399.00;5135222;27;45599;-73
2022/07/14 08:41:35;;;;;;;;;8.25;7.25;;;;;31.02;33.56;101364.47;5134958;27;46191;-73
2022/07/14 08:44:02;;;;;;;;;6.00;6.00;;;;;31.01;33.04;101363.59;5138899;27;45391;-73
2022/07/14 08:46:33;;;;;;;;;9.00;9.00;;;;;31.25;33.05;101401.50;5138205;27;45372;-73
2022/07/14 08:49:00;;;;;;;;;8.00;8.00;;;;;30.89;32.28;101325.78;5135192;27;45528;-71
2022/07/14 08:51:26;;;;;;;;;8.00;7.75;;;;;31.25;32.54;101390.66;5135418;27;45419;-71
2022/07/14 08:53:52;;;;;;;;;7.00;7.00;;;;;31.37;32.69;101405.13;5141508;27;45386;-73
2022/07/14 08:56:19;;;;;;;;;8.25;8.25;;;;;31.30;31.84;101389.44;5142552;27;45480;-72
2022/07/14 08:58:45;;;;;;;;;10.25;10.25;;;;;31.31;31.80;101388.47;5145805;27;45557;-74
2022/07/14 09:01:11;;;;;;;;;10.75;10.00;;;;;31.40;32.48;101399.50;5141162;27;45490;-74
2022/07/14 09:03:37;;;;;;;;;10.00;10.00;;;;;31.43;32.12;101399.25;5138273;27;45286;-72
2022/07/14 09:06:05;;;;;;;;;11.25;11.25;;;;;31.47;32.23;101394.50;5138371;27;45352;-74
2022/07/14 09:08:52;;;;;;;;;11.75;11.75;;;;;31.35;32.52;101392.69;5119049;27;45553;-74
2022/07/14 09:11:18;;;;;;;;;8.00;8.00;;;;;31.44;31.86;101394.69;5142069;27;46179;-73
2022/07/14 09:13:44;;;;;;;;;10.50;10.25;;;;;31.36;31.47;101381.72;5140480;27;45423;-74
2022/07/14 09:16:23;;;;;;;;;9.00;9.00;;;;;31.32;30.94;101369.41;5138172;27;45660;-72
2022/07/14 09:19:12;;;;;;;;;8.75;8.75;;;;;31.37;30.96;101367.22;5138251;27;45419;-74
2022/07/14 09:21:40;;;;;;;;;8.50;7.00;;;;;31.55;30.89;101392.03;5141093;27;46493;-73
2022/07/14 09:24:07;;;;;;;;;7.20;6.00;;;;;31.57;30.46;101390.09;5137859;27;45650;-73
2022/07/14 09:26:44;;;;;;;;;7.00;7.00;;;;;31.55;30.74;101380.38;5137741;27;45621;-72
2022/07/14 09:29:18;;;;;;;;;8.50;8.50;;;;;31.61;31.22;101379.91;5137672;27;45513;-76
2022/07/14 09:31:47;;;;;;;;;7.25;7.25;;;;;31.62;30.92;101370.78;5137001;27;46700;-74
2022/07/14 09:34:33;;;;;;;;;7.25;7.00;;;;;31.62;30.49;101363.53;5137136;27;45539;-71
2022/07/14 09:37:16;;;;;;;;;8.25;7.00;;;;;31.67;31.14;101384.84;5137367;27;45373;-72
2022/07/14 09:39:56;;;;;;;;;7.25;7.25;;;;;31.73;30.51;101400.63;5137383;27;45523;-72
2022/07/14 09:42:50;;;;;;;;;8.00;8.00;;;;;31.75;30.63;101389.66;5137539;27;46453;-72
2022/07/14 09:45:18;;;;;;;;;6.25;6.25;;;;;31.67;30.31;101374.00;5137318;27;45731;-72
2022/07/14 09:48:09;;;;;;;;;8.75;8.75;;;;;31.68;30.17;101384.72;5137085;27;45517;-72
2022/07/14 09:50:46;;;;;;;;;14.50;11.50;;;;;31.65;29.52;101373.25;5140845;27;45632;-72
2022/07/14 09:53:19;;;;;;;;;10.50;8.50;;;;;31.80;30.04;101382.91;5140269;27;46259;-71
2022/07/14 09:56:03;;;;;;;;;6.80;6.80;;;;;31.83;29.71;101393.50;5136943;27;45375;-71
2022/07/14 09:58:35;;;;;;;;;8.25;8.25;;;;;31.90;30.05;101383.06;5136972;27;45442;-72
2022/07/14 10:01:06;;;;;;;;;7.75;7.75;;;;;31.79;28.84;101361.34;5137835;27;45499;-72
2022/07/14 10:03:34;;;;;;;;;8.50;7.50;;;;;31.97;29.58;101380.78;5136788;27;47156;-72
2022/07/14 10:06:03;;;;;;;;;7.25;5.75;;;;;32.02;29.52;101376.69;5138511;27;45477;-72
2022/07/14 10:08:31;;;;;;;;;6.25;6.25;;;;;32.04;29.77;101380.16;5138402;27;45365;-72
2022/07/14 10:10:58;;;;;;;;;5.75;5.75;;;;;32.10;29.63;101382.38;5137298;27;45401;-71
2022/07/14 10:13:31;;;;;;;;;6.50;6.50;;;;;31.93;29.23;101353.00;5136416;27;45928;-71
2022/07/14 10:15:57;;;;;;;;;7.60;6.40;;;;;32.06;28.86;101361.09;5136540;27;45481;-72
2022/07/14 10:18:25;;;;;;;;;9.00;8.00;;;;;32.26;28.78;101386.59;5136787;27;45427;-72
2022/07/14 10:20:59;;;;;;;;;7.00;7.00;;;;;32.29;29.50;101389.91;5136773;27;45448;-71
2022/07/14 10:23:26;;;;;;;;;6.25;6.25;;;;;32.37;29.26;101396.56;5136700;27;45732;-71
2022/07/14 10:25:54;;;;;;;;;9.50;8.00;;;;;32.43;28.55;101391.50;5117517;27;45425;-72
2022/07/14 10:28:21;;;;;;;;;8.00;8.00;;;;;32.47;29.24;101386.72;5135742;27;45365;-71
2022/07/14 10:31:14;;;;;;;;;8.75;8.75;;;;;32.55;28.92;101383.41;5136281;27;45589;-71
2022/07/14 10:33:39;;;;;;;;;6.00;6.00;;;;;32.59;28.53;101388.47;5136596;27;45519;-71
2022/07/14 10:36:23;;;;;;;;;5.25;5.25;;;;;32.59;28.90;101377.63;5117623;27;45384;-72
2022/07/14 10:39:26;;;;;;;;;7.00;7.00;;;;;32.63;29.07;101386.34;5117931;27;45684;-71
2022/07/14 10:42:11;;;;;;;;;8.00;8.00;;;;;32.71;28.92;101382.03;5125154;27;45556;-72
2022/07/14 10:44:47;;;;;;;;;9.00;7.75;;;;;32.71;28.62;101387.47;5136281;27;46167;-72
2022/07/14 10:47:15;;;;;;;;;6.40;6.40;;;;;32.74;28.36;101395.34;5129678;27;45527;-71
2022/07/14 10:50:01;;;;;;;;;7.00;6.00;;;;;32.80;28.34;101390.44;5117381;27;45335;-72
2022/07/14 10:52:29;;;;;;;;;5.25;5.00;;;;;32.85;28.19;101394.47;5122982;27;45705;-71
2022/07/14 10:55:18;;;;;;;;;6.75;6.75;;;;;32.89;28.26;101390.53;5121049;27;46483;-71
2022/07/14 10:57:59;;;;;;;;;9.40;8.00;;;;;32.95;27.56;101386.44;5139418;27;45351;-71
2022/07/14 11:00:55;;;;;;;;;6.00;6.00;;;;;32.99;28.30;101384.34;5123054;27;45428;-71
2022/07/14 11:03:37;;;;;;;;;7.50;7.50;;;;;32.94;28.31;101380.16;5137660;27;45435;-71
2022/07/14 11:06:03;;;;;;;;;9.00;7.00;;;;;32.96;27.97;101374.63;5135756;27;46269;-72
2022/07/14 11:08:34;;;;;;;;;8.20;7.80;;;;;32.95;28.04;101389.16;5133017;27;45847;-71
2022/07/14 11:11:00;;;;;;;;;6.60;6.60;;;;;32.97;27.61;101379.03;5141208;27;45452;-72
2022/07/14 11:13:27;;;;;;;;;7.00;7.00;;;;;33.05;27.63;101383.88;5138019;27;45367;-71
2022/07/14 11:15:57;;;;;;;;;10.50;8.00;;;;;33.16;27.65;101381.13;5117134;27;47805;-71
2022/07/14 11:18:24;;;;;;;;;10.20;5.20;;;;;33.26;27.80;101376.63;5136196;27;45428;-72
2022/07/14 11:21:17;;;;;;;;;5.60;5.60;;;;;33.35;27.27;101378.59;5137746;27;45304;-70
2022/07/14 11:23:49;;;;;;;;;6.75;5.25;;;;;33.43;26.25;101369.78;5136506;27;45380;-70
2022/07/14 11:26:40;;;;;;;;;4.75;4.75;;;;;33.48;26.15;101381.13;5135480;27;46168;-72
2022/07/14 11:29:08;;;;;;;;;7.00;4.40;;;;;33.57;25.95;101368.63;5127955;27;45467;-71
2022/07/14 11:31:44;;;;;;;;;6.80;6.80;;;;;33.65;26.56;101368.88;5140137;27;45358;-71
2022/07/14 11:37:26;;;;;;;;;4.40;4.40;;;;;33.78;25.69;101377.66;5077847;27;45703;-72
2022/07/14 11:39:51;;;;;;;;;5.75;5.75;;;;;33.71;25.74;101352.00;5136178;27;45562;-72